createdAt,value
2023-03-30T00:00:59.275Z,1.95
2023-03-30T00:03:27.435Z,1.98
2023-03-30T00:05:58.409Z,2.78
2023-03-30T00:08:30.133Z,2.47
2023-03-30T00:11:05.914Z,1.77
2023-03-30T00:13:34.867Z,1.73
2023-03-30T00:16:02.152Z,1.85
2023-03-30T00:18:29.976Z,2.90
2023-03-30T00:20:58.447Z,2.05
2023-03-30T00:23:25.532Z,1.95
2023-03-30T00:25:52.313Z,2.30
2023-03-30T00:28:19.128Z,2.40
2023-03-30T00:30:48.575Z,1.95
2023-03-30T00:33:15.925Z,2.30
2023-03-30T00:35:42.745Z,2.28
2023-03-30T00:38:09.678Z,2.17
2023-03-30T00:40:38.374Z,3.15
2023-03-30T00:43:11.312Z,2.13
2023-03-30T00:45:38.488Z,1.90
2023-03-30T00:48:12.276Z,2.47
2023-03-30T00:51:02.369Z,1.58
2023-03-30T00:53:37.513Z,2.42
2023-03-30T00:56:07.737Z,2.22
2023-03-30T00:58:37.127Z,2.28
2023-03-30T01:01:07.540Z,1.90
2023-03-30T01:03:39.061Z,2.33
2023-03-30T01:06:07.868Z,2.58
2023-03-30T01:08:35.082Z,3.17
2023-03-30T01:11:03.044Z,4.25
2023-03-30T01:13:32.195Z,2.40
2023-03-30T01:16:19.017Z,2.13
2023-03-30T01:18:54.798Z,2.15
2023-03-30T01:22:01.174Z,2.60
2023-03-30T01:24:58.645Z,2.65
2023-03-30T01:28:00.108Z,2.50
2023-03-30T01:30:32.828Z,1.95
2023-03-30T01:33:13.345Z,2.17
2023-03-30T01:36:05.490Z,2.20
2023-03-30T01:38:46.460Z,2.60
2023-03-30T01:41:44.929Z,1.60
2023-03-30T01:44:37.440Z,1.90
2023-03-30T01:47:13.350Z,2.00
2023-03-30T01:49:48.684Z,2.33
2023-03-30T01:52:38.439Z,1.90
2023-03-30T01:55:13.706Z,3.25
2023-03-30T01:58:00.541Z,2.65
2023-03-30T02:00:28.749Z,2.95
2023-03-30T02:03:08.745Z,2.67
2023-03-30T02:05:37.057Z,2.28
2023-03-30T02:08:09.656Z,2.30
2023-03-30T02:10:38.350Z,2.33
2023-03-30T02:13:06.147Z,2.20
2023-03-30T02:15:40.818Z,2.25
2023-03-30T02:18:07.643Z,1.83
2023-03-30T02:20:35.450Z,2.47
2023-03-30T02:23:05.895Z,1.77
2023-03-30T02:25:36.161Z,2.05
2023-03-30T02:28:03.803Z,2.83
2023-03-30T02:30:35.771Z,2.67
2023-03-30T02:33:03.682Z,2.65
2023-03-30T02:35:49.565Z,2.35
2023-03-30T02:38:39.752Z,2.60
2023-03-30T02:41:19.940Z,3.20
2023-03-30T02:44:01.972Z,2.20
2023-03-30T02:46:59.694Z,2.42
2023-03-30T02:49:38.027Z,2.53
2023-03-30T02:52:26.558Z,2.00
2023-03-30T02:55:06.046Z,2.78
2023-03-30T02:58:30.805Z,2.13
2023-03-30T03:01:36.646Z,2.20
2023-03-30T03:04:17.564Z,2.88
2023-03-30T03:07:03.730Z,2.70
2023-03-30T03:09:31.001Z,2.22
2023-03-30T03:11:58.126Z,3.17
2023-03-30T03:14:29.665Z,2.42
2023-03-30T03:16:57.011Z,2.60
2023-03-30T03:19:29.337Z,3.83
2023-03-30T03:21:56.383Z,2.67
2023-03-30T03:24:23.791Z,2.75
2023-03-30T03:27:11.728Z,2.63
2023-03-30T03:29:54.277Z,2.78
2023-03-30T03:32:21.015Z,2.58
2023-03-30T03:34:49.973Z,3.33
2023-03-30T03:37:16.915Z,2.92
2023-03-30T03:39:45.008Z,2.72
2023-03-30T03:42:13.316Z,3.40
2023-03-30T03:44:49.168Z,2.88
2023-03-30T03:47:16.792Z,2.60
2023-03-30T03:49:44.659Z,2.72
2023-03-30T03:52:11.620Z,3.33
2023-03-30T03:54:38.556Z,3.03
2023-03-30T03:57:06.374Z,2.95
2023-03-30T03:59:33.474Z,3.42
2023-03-30T04:02:00.258Z,3.30
2023-03-30T04:04:28.128Z,2.63
2023-03-30T04:06:56.210Z,2.58
2023-03-30T04:09:24.657Z,3.58
2023-03-30T04:12:12.945Z,3.35
2023-03-30T04:15:18.264Z,2.95
2023-03-30T04:18:05.279Z,2.55
2023-03-30T04:20:54.650Z,2.50
2023-03-30T04:23:48.870Z,2.22
2023-03-30T04:26:18.261Z,3.15
2023-03-30T04:28:46.738Z,2.38
2023-03-30T04:31:34.869Z,2.72
2023-03-30T04:34:30.897Z,2.80
2023-03-30T04:37:30.836Z,2.85
2023-03-30T04:40:18.500Z,3.30
2023-03-30T04:42:54.645Z,2.70
2023-03-30T04:45:37.608Z,3.00
2023-03-30T04:48:23.958Z,3.05
2023-03-30T04:51:09.522Z,2.10
2023-03-30T04:53:55.139Z,3.28
2023-03-30T04:56:45.562Z,3.47
2023-03-30T04:59:31.105Z,2.78
2023-03-30T05:02:16.464Z,3.55
2023-03-30T05:05:01.948Z,2.97
2023-03-30T05:07:54.926Z,3.00
2023-03-30T05:11:05.190Z,3.17
2023-03-30T05:13:43.922Z,3.03
2023-03-30T05:16:29.260Z,3.08
2023-03-30T05:19:26.038Z,3.55
2023-03-30T05:22:21.932Z,3.58
2023-03-30T05:24:57.694Z,3.75
2023-03-30T05:27:47.965Z,4.07
2023-03-30T05:30:24.937Z,3.97
2023-03-30T05:33:10.351Z,3.58
2023-03-30T05:35:53.380Z,2.97
2023-03-30T05:38:43.217Z,3.45
2023-03-30T05:41:23.033Z,3.80
2023-03-30T05:43:58.849Z,3.00
2023-03-30T05:46:54.907Z,3.13
2023-03-30T05:49:40.226Z,2.65
2023-03-30T05:52:33.143Z,3.20
2023-03-30T05:55:32.566Z,3.45
2023-03-30T05:58:17.968Z,3.15
2023-03-30T06:00:58.333Z,2.67
2023-03-30T06:03:33.107Z,3.08
2023-03-30T06:06:00.683Z,2.90
2023-03-30T06:08:27.971Z,2.80
2023-03-30T06:10:59.053Z,3.13
2023-03-30T06:13:28.877Z,3.00
2023-03-30T06:15:56.150Z,3.20
2023-03-30T06:18:26.058Z,2.92
2023-03-30T06:21:07.520Z,2.85
2023-03-30T06:23:47.514Z,2.83
2023-03-30T06:26:18.855Z,2.90
2023-03-30T06:28:47.840Z,3.58
2023-03-30T06:31:15.294Z,3.13
2023-03-30T06:33:43.398Z,3.05
2023-03-30T06:36:12.722Z,2.95
2023-03-30T06:38:41.099Z,2.58
2023-03-30T06:41:10.041Z,3.08
2023-03-30T06:43:40.268Z,3.60
2023-03-30T06:46:15.783Z,3.58
2023-03-30T06:48:48.401Z,3.00
2023-03-30T06:51:35.491Z,3.33
2023-03-30T06:54:04.027Z,3.45
2023-03-30T06:56:31.373Z,3.78
2023-03-30T06:59:13.332Z,3.15
2023-03-30T07:02:03.668Z,3.03
2023-03-30T07:05:01.097Z,5.07
2023-03-30T07:07:46.455Z,3.88
2023-03-30T07:10:13.389Z,3.53
2023-03-30T07:12:41.318Z,3.25
2023-03-30T07:15:08.865Z,3.20
2023-03-30T07:17:37.067Z,3.13
2023-03-30T07:20:07.793Z,3.55
2023-03-30T07:22:43.418Z,4.45
2023-03-30T07:25:10.885Z,3.88
2023-03-30T07:27:38.035Z,3.88
2023-03-30T07:30:17.940Z,4.07
2023-03-30T07:32:50.212Z,4.30
2023-03-30T07:35:17.340Z,4.35
2023-03-30T07:37:44.155Z,3.70
2023-03-30T07:40:12.726Z,4.40
2023-03-30T07:42:42.406Z,3.55
2023-03-30T07:45:10.587Z,4.28
2023-03-30T07:47:37.841Z,4.13
2023-03-30T07:50:06.451Z,4.25
2023-03-30T07:52:33.738Z,4.15
2023-03-30T07:55:02.967Z,4.68
2023-03-30T07:57:44.134Z,4.20
2023-03-30T08:00:13.965Z,4.88
2023-03-30T08:03:19.840Z,5.00
2023-03-30T08:05:59.349Z,4.93
2023-03-30T08:08:28.434Z,4.40
2023-03-30T08:10:55.176Z,4.80
2023-03-30T08:13:22.242Z,7.88
2023-03-30T08:15:49.341Z,7.22
2023-03-30T08:19:10.656Z,6.07
2023-03-30T08:21:37.322Z,5.25
2023-03-30T08:24:04.260Z,3.80
2023-03-30T08:26:31.013Z,3.90
2023-03-30T08:28:58.195Z,3.45
2023-03-30T08:31:25.048Z,3.47
2023-03-30T08:33:51.726Z,3.42
2023-03-30T08:36:20.190Z,3.08
2023-03-30T08:38:46.866Z,3.42
2023-03-30T08:41:48.519Z,2.50
2023-03-30T08:44:23.175Z,2.03
2023-03-30T08:46:51.215Z,2.10
2023-03-30T08:49:20.402Z,1.70
2023-03-30T08:51:50.732Z,1.60
2023-03-30T08:54:20.385Z,1.70
2023-03-30T08:56:59.798Z,1.20
2023-03-30T09:00:06.117Z,1.10
2023-03-30T09:02:38.124Z,1.33
2023-03-30T09:05:27.296Z,1.50
2023-03-30T09:08:17.693Z,1.15
2023-03-30T09:10:49.641Z,1.67
2023-03-30T09:13:20.253Z,1.20
2023-03-30T09:16:02.394Z,1.42
2023-03-30T09:18:34.707Z,1.27
2023-03-30T09:21:04.188Z,1.10
2023-03-30T09:23:31.879Z,1.15
2023-03-30T09:26:26.340Z,1.40
2023-03-30T09:29:15.374Z,1.20
2023-03-30T09:31:48.801Z,1.33
2023-03-30T09:34:36.220Z,1.33
2023-03-30T09:37:06.896Z,1.40
2023-03-30T09:39:36.364Z,1.40
2023-03-30T09:42:19.970Z,1.33
2023-03-30T09:45:05.452Z,1.40
2023-03-30T09:47:39.020Z,1.30
2023-03-30T09:50:08.082Z,1.40
2023-03-30T09:52:38.651Z,1.70
2023-03-30T09:55:20.636Z,1.55
2023-03-30T09:57:48.939Z,1.55
2023-03-30T10:00:31.239Z,1.70
2023-03-30T10:03:06.577Z,1.77
2023-03-30T10:05:36.393Z,1.73
2023-03-30T10:08:19.450Z,1.67
2023-03-30T10:10:46.336Z,1.77
2023-03-30T10:13:19.404Z,1.98
2023-03-30T10:15:51.670Z,1.42
2023-03-30T10:18:18.307Z,2.10
2023-03-30T10:20:52.919Z,1.60
2023-03-30T10:23:22.166Z,1.70
2023-03-30T10:25:50.175Z,2.10
2023-03-30T10:28:27.778Z,1.85
2023-03-30T10:31:05.405Z,1.75
2023-03-30T10:33:40.091Z,1.75
2023-03-30T10:36:07.791Z,1.95
2023-03-30T10:38:35.819Z,1.90
2023-03-30T10:41:11.878Z,1.88
2023-03-30T10:43:42.032Z,1.98
2023-03-30T10:46:19.823Z,2.42
2023-03-30T10:49:25.590Z,1.90
2023-03-30T10:51:52.241Z,2.20
2023-03-30T10:54:40.714Z,2.10
2023-03-30T10:57:10.450Z,2.22
2023-03-30T10:59:52.660Z,2.30
2023-03-30T11:02:40.914Z,2.05
2023-03-30T11:05:32.655Z,2.20
2023-03-30T11:08:06.275Z,2.42
2023-03-30T11:13:03.410Z,2.85
2023-03-30T11:15:54.832Z,2.20
2023-03-30T11:18:39.376Z,2.75
2023-03-30T11:21:34.351Z,2.50
2023-03-30T11:24:18.423Z,2.47
2023-03-30T11:27:06.943Z,3.10
2023-03-30T11:29:46.144Z,2.50
2023-03-30T11:32:32.855Z,2.47
2023-03-30T11:35:14.125Z,1.92
2023-03-30T11:37:43.613Z,2.42
2023-03-30T11:40:17.383Z,2.33
2023-03-30T11:42:44.947Z,2.15
2023-03-30T11:45:18.560Z,2.28
2023-03-30T11:48:04.687Z,2.08
2023-03-30T11:50:57.785Z,2.70
2023-03-30T11:53:51.890Z,3.17
2023-03-30T11:56:37.163Z,2.40
2023-03-30T11:59:16.966Z,2.63
2023-03-30T12:02:02.816Z,2.83
2023-03-30T12:04:45.188Z,2.45
2023-03-30T12:07:31.921Z,2.35
2023-03-30T12:10:12.559Z,2.83
2023-03-30T12:12:40.561Z,3.10
2023-03-30T12:15:31.530Z,2.30
2023-03-30T12:18:24.725Z,2.58
2023-03-30T12:21:20.723Z,3.13
2023-03-30T12:24:01.010Z,2.63
2023-03-30T12:26:34.177Z,2.17
2023-03-30T12:31:58.543Z,2.50
2023-03-30T12:34:31.977Z,3.45
2023-03-30T12:39:57.667Z,2.47
2023-03-30T12:42:37.489Z,2.40
2023-03-30T12:45:12.989Z,2.17
2023-03-30T12:47:46.157Z,2.50
2023-03-30T12:53:03.177Z,2.38
2023-03-30T12:56:03.638Z,2.28
2023-03-30T12:58:42.742Z,1.92
2023-03-30T13:01:40.267Z,2.50
2023-03-30T13:04:14.319Z,2.53
2023-03-30T13:06:53.810Z,1.85
2023-03-30T13:09:21.644Z,2.10
2023-03-30T13:11:54.455Z,2.15
2023-03-30T13:14:30.342Z,1.95
2023-03-30T13:16:59.912Z,1.88
2023-03-30T13:19:32.567Z,2.10
2023-03-30T13:22:11.649Z,1.90
2023-03-30T13:24:59.987Z,2.05
2023-03-30T13:27:28.824Z,1.67
2023-03-30T13:30:09.642Z,2.45
2023-03-30T13:32:57.851Z,1.90
2023-03-30T13:35:46.168Z,2.25
2023-03-30T13:38:30.201Z,2.03
2023-03-30T13:41:24.409Z,1.80
2023-03-30T13:44:05.781Z,1.67
2023-03-30T13:46:53.226Z,1.98
2023-03-30T13:49:56.974Z,1.85
2023-03-30T13:52:32.882Z,1.90
2023-03-30T13:55:01.646Z,1.52
2023-03-30T13:57:41.402Z,1.73
2023-03-30T14:00:28.499Z,2.03
2023-03-30T14:02:55.303Z,1.50
2023-03-30T14:05:26.267Z,2.00
2023-03-30T14:07:57.129Z,1.65
2023-03-30T14:10:24.552Z,1.55
2023-03-30T14:12:56.402Z,1.40
2023-03-30T14:15:37.272Z,1.48
2023-03-30T14:18:05.409Z,1.88
2023-03-30T14:20:51.898Z,1.30
2023-03-30T14:23:38.469Z,1.65
2023-03-30T14:26:17.696Z,1.35
2023-03-30T14:28:44.953Z,1.42
2023-03-30T14:31:27.348Z,1.33
2023-03-30T14:33:54.668Z,1.38
2023-03-30T14:36:22.639Z,1.45
2023-03-30T14:38:52.187Z,1.20
2023-03-30T14:41:27.935Z,1.50
2023-03-30T14:44:02.961Z,1.35
2023-03-30T14:46:46.735Z,1.15
2023-03-30T14:49:19.765Z,1.42
2023-03-30T14:51:48.506Z,1.38
2023-03-30T14:54:21.558Z,1.50
2023-03-30T14:56:57.710Z,1.92
2023-03-30T14:59:27.208Z,1.55
2023-03-30T15:01:55.578Z,1.30
2023-03-30T15:04:31.750Z,2.00
2023-03-30T15:06:59.480Z,1.70
2023-03-30T15:09:26.566Z,1.27
2023-03-30T15:12:00.689Z,1.42
2023-03-30T15:14:33.688Z,1.17
2023-03-30T15:17:06.146Z,1.48
2023-03-30T15:19:34.489Z,1.40
2023-03-30T15:22:04.639Z,1.35
2023-03-30T15:24:37.359Z,1.05
2023-03-30T15:27:07.859Z,0.90
2023-03-30T15:29:34.619Z,0.90
2023-03-30T15:32:10.350Z,1.30
2023-03-30T15:34:37.497Z,1.42
2023-03-30T15:37:04.209Z,0.88
2023-03-30T15:39:36.527Z,1.25
2023-03-30T15:42:05.907Z,1.30
2023-03-30T15:44:41.056Z,1.10
2023-03-30T15:47:14.575Z,1.02
2023-03-30T15:49:47.636Z,0.70
2023-03-30T15:52:26.278Z,1.20
2023-03-30T15:54:56.155Z,0.82
2023-03-30T15:57:27.891Z,0.68
2023-03-30T16:00:06.633Z,0.80
2023-03-30T16:02:46.076Z,0.90
2023-03-30T16:05:33.671Z,0.80
2023-03-30T16:08:00.994Z,0.75
2023-03-30T16:10:30.832Z,0.60
2023-03-30T16:12:59.033Z,0.63
2023-03-30T16:15:31.814Z,0.57
2023-03-30T16:17:58.725Z,0.45
2023-03-30T16:20:30.928Z,0.60
2023-03-30T16:22:57.835Z,0.60
2023-03-30T16:25:34.492Z,0.90
2023-03-30T16:28:04.950Z,0.50
2023-03-30T16:30:34.782Z,0.77
2023-03-30T16:33:02.190Z,1.10
2023-03-30T16:35:29.457Z,0.85
2023-03-30T16:37:56.413Z,1.30
2023-03-30T16:40:42.824Z,1.15
2023-03-30T16:43:10.109Z,0.98
2023-03-30T16:45:37.092Z,0.63
2023-03-30T16:48:04.485Z,1.23
2023-03-30T16:50:46.363Z,0.88
2023-03-30T16:53:13.226Z,0.80
2023-03-30T16:55:40.971Z,1.10
2023-03-30T16:58:11.025Z,0.82
2023-03-30T17:00:41.277Z,1.00
2023-03-30T17:03:08.932Z,1.58
2023-03-30T17:05:35.978Z,1.00
2023-03-30T17:08:11.516Z,1.30
2023-03-30T17:10:40.485Z,1.00
2023-03-30T17:13:08.218Z,0.75
2023-03-30T17:15:38.389Z,0.60
2023-03-30T17:18:08.949Z,0.80
2023-03-30T17:20:38.792Z,0.98
2023-03-30T17:23:07.814Z,0.80
2023-03-30T17:25:36.122Z,0.90
2023-03-30T17:28:08.601Z,1.10
2023-03-30T17:30:38.263Z,1.00
2023-03-30T17:33:10.360Z,1.00
2023-03-30T17:35:38.377Z,1.13
2023-03-30T17:38:08.861Z,1.40
2023-03-30T17:40:39.791Z,0.98
2023-03-30T17:43:07.280Z,0.90
2023-03-30T17:45:35.174Z,1.17
2023-03-30T17:48:03.251Z,0.75
2023-03-30T17:50:31.820Z,0.95
2023-03-30T17:52:58.852Z,0.73
2023-03-30T17:55:28.371Z,1.23
2023-03-30T17:57:55.360Z,1.00
2023-03-30T18:00:27.828Z,1.13
2023-03-30T18:02:55.423Z,0.75
2023-03-30T18:05:27.311Z,1.15
2023-03-30T18:07:54.733Z,1.27
2023-03-30T18:10:28.205Z,1.05
2023-03-30T18:12:55.244Z,1.20
2023-03-30T18:15:25.587Z,1.02
2023-03-30T18:17:55.091Z,1.15
2023-03-30T18:20:35.764Z,1.00
2023-03-30T18:23:03.014Z,0.95
2023-03-30T18:25:32.852Z,1.00
2023-03-30T18:28:00.973Z,1.20
2023-03-30T18:30:32.107Z,1.70
2023-03-30T18:32:59.091Z,1.83
2023-03-30T18:35:29.535Z,1.65
2023-03-30T18:37:56.985Z,1.00
2023-03-30T18:40:31.258Z,1.02
2023-03-30T18:42:59.964Z,1.50
2023-03-30T18:45:38.400Z,1.27
2023-03-30T18:48:07.451Z,1.30
2023-03-30T18:50:38.483Z,1.40
2023-03-30T18:53:11.238Z,1.25
2023-03-30T18:55:40.245Z,1.48
2023-03-30T18:58:14.159Z,0.95
2023-03-30T19:00:40.881Z,1.35
2023-03-30T19:03:07.918Z,1.30
2023-03-30T19:05:35.611Z,1.40
2023-03-30T19:08:02.275Z,1.02
2023-03-30T19:10:31.203Z,1.27
2023-03-30T19:12:58.277Z,1.20
2023-03-30T19:15:30.482Z,1.38
2023-03-30T19:17:57.212Z,1.30
2023-03-30T19:20:27.021Z,1.13
2023-03-30T19:22:53.991Z,1.45
2023-03-30T19:25:22.756Z,1.08
2023-03-30T19:28:01.961Z,1.13
2023-03-30T19:30:32.444Z,1.05
2023-03-30T19:33:01.639Z,1.10
2023-03-30T19:35:29.074Z,1.38
2023-03-30T19:37:56.354Z,1.40
2023-03-30T19:40:23.942Z,1.23
2023-03-30T19:42:51.376Z,1.30
2023-03-30T19:45:20.340Z,1.50
2023-03-30T19:47:47.425Z,1.20
2023-03-30T19:50:17.940Z,1.30
2023-03-30T19:52:48.501Z,1.88
2023-03-30T19:55:15.933Z,1.40
2023-03-30T19:57:42.672Z,1.30
2023-03-30T20:00:15.767Z,1.42
2023-03-30T20:02:48.183Z,1.20
2023-03-30T20:05:15.844Z,1.42
2023-03-30T20:07:44.164Z,1.20
2023-03-30T20:10:13.240Z,1.90
2023-03-30T20:12:40.230Z,2.30
2023-03-30T20:15:08.148Z,1.40
2023-03-30T20:17:36.265Z,1.83
2023-03-30T20:20:06.624Z,1.70
2023-03-30T20:22:38.430Z,1.77
2023-03-30T20:25:07.526Z,1.45
2023-03-30T20:27:35.463Z,1.20
2023-03-30T20:30:03.515Z,1.20
2023-03-30T20:32:30.394Z,1.65
2023-03-30T20:34:57.074Z,1.58
2023-03-30T20:37:23.836Z,1.38
2023-03-30T20:39:50.535Z,1.80
2023-03-30T20:42:18.164Z,1.23
2023-03-30T20:44:49.936Z,1.45
2023-03-30T20:47:17.856Z,1.33
2023-03-30T20:49:44.999Z,1.10
2023-03-30T20:52:12.496Z,1.25
2023-03-30T20:54:40.902Z,1.38
2023-03-30T20:57:07.863Z,1.50
2023-03-30T20:59:34.646Z,1.77
2023-03-30T21:02:01.570Z,1.70
2023-03-30T21:04:28.669Z,1.48
2023-03-30T21:06:55.926Z,1.35
2023-03-30T21:09:22.588Z,1.67
2023-03-30T21:11:49.268Z,1.20
2023-03-30T21:14:16.153Z,1.70
2023-03-30T21:16:43.064Z,1.35
2023-03-30T21:19:10.283Z,1.08
2023-03-30T21:21:37.870Z,1.17
2023-03-30T21:24:06.205Z,1.33
2023-03-30T21:26:33.179Z,1.25
2023-03-30T21:29:00.021Z,1.75
2023-03-30T21:31:27.033Z,1.67
2023-03-30T21:33:53.776Z,1.30
2023-03-30T21:36:20.723Z,1.13
2023-03-30T21:38:47.492Z,1.48
2023-03-30T21:41:16.614Z,1.25
2023-03-30T21:43:45.562Z,1.75
2023-03-30T21:46:14.853Z,1.83
2023-03-30T21:48:42.952Z,1.40
2023-03-30T21:51:16.568Z,1.38
2023-03-30T21:53:45.848Z,1.75
2023-03-30T21:56:12.981Z,1.83
2023-03-30T21:58:39.802Z,1.35
2023-03-30T22:01:12.265Z,1.00
2023-03-30T22:06:09.490Z,1.20
2023-03-30T22:08:36.660Z,1.42
2023-03-30T22:11:06.818Z,1.55
2023-03-30T22:13:33.830Z,1.48
2023-03-30T22:16:13.192Z,1.30
2023-03-30T22:18:40.754Z,1.40
2023-03-30T22:21:11.119Z,1.60
2023-03-30T22:23:37.760Z,1.20
2023-03-30T22:26:04.862Z,1.08
2023-03-30T22:28:31.938Z,1.33
2023-03-30T22:30:58.697Z,1.40
2023-03-30T22:33:27.915Z,1.30
2023-03-30T22:35:54.704Z,1.40
2023-03-30T22:38:21.394Z,1.08
2023-03-30T22:40:48.050Z,1.45
2023-03-30T22:43:14.798Z,1.30
2023-03-30T22:45:43.457Z,1.55
2023-03-30T22:48:10.274Z,1.38
2023-03-30T22:50:37.058Z,1.02
2023-03-30T22:53:03.775Z,1.25
2023-03-30T22:55:30.492Z,1.40
2023-03-30T22:57:57.615Z,1.45
2023-03-30T23:00:24.643Z,1.27
2023-03-30T23:02:51.642Z,1.10
2023-03-30T23:05:21.126Z,1.30
2023-03-30T23:07:49.197Z,1.15
2023-03-30T23:10:19.414Z,1.52
2023-03-30T23:12:46.675Z,2.10
2023-03-30T23:15:13.936Z,1.77
2023-03-30T23:17:41.333Z,1.30
2023-03-30T23:20:10.375Z,1.70
2023-03-30T23:22:38.271Z,1.30
2023-03-30T23:25:06.328Z,1.52
2023-03-30T23:27:36.915Z,1.52
2023-03-30T23:30:07.567Z,1.77
2023-03-30T23:32:35.327Z,1.52
2023-03-30T23:35:03.066Z,1.50
2023-03-30T23:37:30.270Z,1.63
2023-03-30T23:40:01.814Z,1.17
2023-03-30T23:42:28.929Z,1.67
2023-03-30T23:44:55.823Z,1.70
2023-03-30T23:47:22.818Z,1.27
2023-03-30T23:49:49.520Z,1.83
2023-03-30T23:52:16.374Z,1.70
2023-03-30T23:54:43.044Z,1.63
2023-03-30T23:57:09.915Z,1.75
2023-03-30T23:59:37.237Z,1.30
